sensor_id;sensor_type;location;lat;lon;timestamp;P1;durP1;ratioP1;P2;durP2;ratioP2
63193;SDS011;49289;51.670;5.624;2023-07-13T00:00:40;5.10;;;1.60;;
63193;SDS011;49289;51.670;5.624;2023-07-13T00:02:29;5.70;;;1.70;;
63193;SDS011;49289;51.670;5.624;2023-07-13T00:04:17;3.80;;;1.70;;
63193;SDS011;49289;51.670;5.624;2023-07-13T00:06:04;3.70;;;1.60;;
63193;SDS011;49289;51.670;5.624;2023-07-13T00:07:52;4.70;;;1.70;;
63193;SDS011;49289;51.670;5.624;2023-07-13T00:09:40;2.10;;;1.50;;
63193;SDS011;49289;51.670;5.624;2023-07-13T00:11:27;4.00;;;1.70;;
63193;SDS011;49289;51.670;5.624;2023-07-13T00:13:14;5.20;;;1.60;;
63193;SDS011;49289;51.670;5.624;2023-07-13T00:15:04;3.30;;;1.40;;
63193;SDS011;49289;51.670;5.624;2023-07-13T00:16:51;4.70;;;1.70;;
63193;SDS011;49289;51.670;5.624;2023-07-13T00:18:40;4.80;;;1.80;;
63193;SDS011;49289;51.670;5.624;2023-07-13T00:20:28;7.80;;;1.70;;
63193;SDS011;49289;51.670;5.624;2023-07-13T00:22:15;4.20;;;1.60;;
63193;SDS011;49289;51.670;5.624;2023-07-13T00:24:02;4.80;;;1.80;;
63193;SDS011;49289;51.670;5.624;2023-07-13T00:25:50;4.80;;;1.80;;
63193;SDS011;49289;51.670;5.624;2023-07-13T00:27:37;5.60;;;1.90;;
63193;SDS011;49289;51.670;5.624;2023-07-13T00:29:25;3.30;;;1.70;;
63193;SDS011;49289;51.670;5.624;2023-07-13T00:31:13;4.60;;;1.70;;
63193;SDS011;49289;51.670;5.624;2023-07-13T00:33:00;3.30;;;1.80;;
63193;SDS011;49289;51.670;5.624;2023-07-13T00:34:48;4.70;;;2.00;;
63193;SDS011;49289;51.670;5.624;2023-07-13T00:36:37;5.00;;;1.70;;
63193;SDS011;49289;51.670;5.624;2023-07-13T00:38:25;6.40;;;1.80;;
63193;SDS011;49289;51.670;5.624;2023-07-13T00:40:15;2.30;;;1.60;;
63193;SDS011;49289;51.670;5.624;2023-07-13T00:42:02;5.30;;;2.00;;
63193;SDS011;49289;51.670;5.624;2023-07-13T00:43:50;4.00;;;1.90;;
63193;SDS011;49289;51.670;5.624;2023-07-13T00:47:52;3.00;;;1.70;;
63193;SDS011;49289;51.670;5.624;2023-07-13T00:49:39;4.50;;;2.00;;
63193;SDS011;49289;51.670;5.624;2023-07-13T00:51:31;4.20;;;1.80;;
63193;SDS011;49289;51.670;5.624;2023-07-13T00:53:19;5.40;;;2.20;;
63193;SDS011;49289;51.670;5.624;2023-07-13T00:55:06;3.70;;;1.80;;
63193;SDS011;49289;51.670;5.624;2023-07-13T00:56:55;5.30;;;1.70;;
63193;SDS011;49289;51.670;5.624;2023-07-13T00:58:43;3.90;;;2.00;;
63193;SDS011;49289;51.670;5.624;2023-07-13T01:00:31;3.70;;;1.80;;
63193;SDS011;49289;51.670;5.624;2023-07-13T01:02:21;3.30;;;1.70;;
63193;SDS011;49289;51.670;5.624;2023-07-13T01:04:22;5.10;;;1.80;;
63193;SDS011;49289;51.670;5.624;2023-07-13T01:06:16;5.30;;;1.80;;
63193;SDS011;49289;51.670;5.624;2023-07-13T01:08:07;8.60;;;2.10;;
63193;SDS011;49289;51.670;5.624;2023-07-13T01:09:54;4.80;;;1.90;;
63193;SDS011;49289;51.670;5.624;2023-07-13T01:11:41;2.80;;;1.50;;
63193;SDS011;49289;51.670;5.624;2023-07-13T01:13:28;3.70;;;1.90;;
63193;SDS011;49289;51.670;5.624;2023-07-13T01:17:34;4.60;;;1.80;;
63193;SDS011;49289;51.670;5.624;2023-07-13T01:19:31;4.30;;;1.90;;
63193;SDS011;49289;51.670;5.624;2023-07-13T01:21:15;3.20;;;1.60;;
63193;SDS011;49289;51.670;5.624;2023-07-13T01:23:02;3.70;;;1.90;;
63193;SDS011;49289;51.670;5.624;2023-07-13T01:24:51;6.30;;;1.90;;
63193;SDS011;49289;51.670;5.624;2023-07-13T01:26:38;2.80;;;1.60;;
63193;SDS011;49289;51.670;5.624;2023-07-13T01:28:26;3.20;;;1.80;;
63193;SDS011;49289;51.670;5.624;2023-07-13T01:30:14;3.70;;;1.80;;
63193;SDS011;49289;51.670;5.624;2023-07-13T01:32:04;4.90;;;2.10;;
63193;SDS011;49289;51.670;5.624;2023-07-13T01:33:53;3.90;;;2.00;;
63193;SDS011;49289;51.670;5.624;2023-07-13T01:35:42;4.40;;;1.90;;
63193;SDS011;49289;51.670;5.624;2023-07-13T01:37:30;5.90;;;1.80;;
63193;SDS011;49289;51.670;5.624;2023-07-13T01:39:17;6.20;;;2.00;;
63193;SDS011;49289;51.670;5.624;2023-07-13T01:41:05;6.20;;;1.80;;
63193;SDS011;49289;51.670;5.624;2023-07-13T01:42:52;3.30;;;1.90;;
63193;SDS011;49289;51.670;5.624;2023-07-13T01:44:39;3.90;;;1.80;;
63193;SDS011;49289;51.670;5.624;2023-07-13T01:46:28;3.20;;;1.90;;
63193;SDS011;49289;51.670;5.624;2023-07-13T01:48:16;5.60;;;1.90;;
63193;SDS011;49289;51.670;5.624;2023-07-13T01:50:03;4.10;;;1.90;;
63193;SDS011;49289;51.670;5.624;2023-07-13T01:51:51;4.00;;;1.80;;
63193;SDS011;49289;51.670;5.624;2023-07-13T01:53:39;3.60;;;1.90;;
63193;SDS011;49289;51.670;5.624;2023-07-13T01:55:28;6.60;;;2.60;;
63193;SDS011;49289;51.670;5.624;2023-07-13T01:57:16;4.40;;;2.10;;
63193;SDS011;49289;51.670;5.624;2023-07-13T01:59:04;6.10;;;1.90;;
63193;SDS011;49289;51.670;5.624;2023-07-13T02:00:53;3.20;;;2.10;;
63193;SDS011;49289;51.670;5.624;2023-07-13T02:02:43;4.10;;;2.10;;
63193;SDS011;49289;51.670;5.624;2023-07-13T02:04:31;4.80;;;2.10;;
63193;SDS011;49289;51.670;5.624;2023-07-13T02:06:18;3.00;;;2.00;;
63193;SDS011;49289;51.670;5.624;2023-07-13T02:08:07;3.60;;;2.20;;
63193;SDS011;49289;51.670;5.624;2023-07-13T02:09:55;4.70;;;2.00;;
63193;SDS011;49289;51.670;5.624;2023-07-13T02:11:43;7.80;;;2.00;;
63193;SDS011;49289;51.670;5.624;2023-07-13T02:13:30;5.40;;;2.20;;
63193;SDS011;49289;51.670;5.624;2023-07-13T02:15:17;8.50;;;2.30;;
63193;SDS011;49289;51.670;5.624;2023-07-13T02:17:06;9.10;;;2.30;;
63193;SDS011;49289;51.670;5.624;2023-07-13T02:18:54;4.90;;;2.10;;
63193;SDS011;49289;51.670;5.624;2023-07-13T02:20:42;5.00;;;2.20;;
63193;SDS011;49289;51.670;5.624;2023-07-13T02:22:29;5.10;;;2.20;;
63193;SDS011;49289;51.670;5.624;2023-07-13T02:24:16;6.00;;;2.00;;
63193;SDS011;49289;51.670;5.624;2023-07-13T02:26:06;6.80;;;2.30;;
63193;SDS011;49289;51.670;5.624;2023-07-13T02:27:54;6.10;;;2.20;;
63193;SDS011;49289;51.670;5.624;2023-07-13T02:29:44;4.70;;;2.10;;
63193;SDS011;49289;51.670;5.624;2023-07-13T02:31:32;8.20;;;2.30;;
63193;SDS011;49289;51.670;5.624;2023-07-13T02:33:20;5.50;;;2.20;;
63193;SDS011;49289;51.670;5.624;2023-07-13T02:35:09;5.30;;;2.10;;
63193;SDS011;49289;51.670;5.624;2023-07-13T02:36:58;6.20;;;2.40;;
63193;SDS011;49289;51.670;5.624;2023-07-13T02:38:46;6.80;;;2.20;;
63193;SDS011;49289;51.670;5.624;2023-07-13T02:40:33;5.20;;;2.40;;
63193;SDS011;49289;51.670;5.624;2023-07-13T02:42:20;7.10;;;2.80;;
63193;SDS011;49289;51.670;5.624;2023-07-13T02:44:09;5.20;;;2.30;;
63193;SDS011;49289;51.670;5.624;2023-07-13T02:45:58;6.70;;;2.60;;
63193;SDS011;49289;51.670;5.624;2023-07-13T02:47:47;5.70;;;2.20;;
63193;SDS011;49289;51.670;5.624;2023-07-13T02:49:35;5.60;;;2.10;;
63193;SDS011;49289;51.670;5.624;2023-07-13T02:51:22;5.80;;;2.40;;
63193;SDS011;49289;51.670;5.624;2023-07-13T02:53:10;7.60;;;2.30;;
63193;SDS011;49289;51.670;5.624;2023-07-13T02:54:57;7.80;;;2.30;;
63193;SDS011;49289;51.670;5.624;2023-07-13T02:56:46;6.20;;;2.20;;
63193;SDS011;49289;51.670;5.624;2023-07-13T02:58:35;4.80;;;2.20;;
63193;SDS011;49289;51.670;5.624;2023-07-13T03:00:23;5.30;;;2.20;;
63193;SDS011;49289;51.670;5.624;2023-07-13T03:02:10;5.80;;;2.40;;
63193;SDS011;49289;51.670;5.624;2023-07-13T03:03:59;5.60;;;2.30;;
63193;SDS011;49289;51.670;5.624;2023-07-13T03:05:47;10.30;;;2.70;;
63193;SDS011;49289;51.670;5.624;2023-07-13T03:07:35;8.20;;;2.30;;
63193;SDS011;49289;51.670;5.624;2023-07-13T03:09:22;9.00;;;2.70;;
63193;SDS011;49289;51.670;5.624;2023-07-13T03:11:12;6.10;;;2.30;;
63193;SDS011;49289;51.670;5.624;2023-07-13T03:12:59;6.50;;;2.40;;
63193;SDS011;49289;51.670;5.624;2023-07-13T03:14:46;7.10;;;2.50;;
63193;SDS011;49289;51.670;5.624;2023-07-13T03:16:33;5.60;;;2.70;;
63193;SDS011;49289;51.670;5.624;2023-07-13T03:18:21;8.90;;;2.80;;
63193;SDS011;49289;51.670;5.624;2023-07-13T03:20:11;6.80;;;2.40;;
63193;SDS011;49289;51.670;5.624;2023-07-13T03:21:58;6.00;;;2.50;;
63193;SDS011;49289;51.670;5.624;2023-07-13T03:23:47;5.80;;;2.20;;
63193;SDS011;49289;51.670;5.624;2023-07-13T03:25:35;6.30;;;2.30;;
63193;SDS011;49289;51.670;5.624;2023-07-13T03:27:22;7.20;;;2.40;;
63193;SDS011;49289;51.670;5.624;2023-07-13T03:29:11;7.20;;;2.60;;
63193;SDS011;49289;51.670;5.624;2023-07-13T03:31:05;7.80;;;2.60;;
63193;SDS011;49289;51.670;5.624;2023-07-13T03:32:51;8.70;;;2.30;;
63193;SDS011;49289;51.670;5.624;2023-07-13T03:34:38;8.00;;;2.60;;
63193;SDS011;49289;51.670;5.624;2023-07-13T03:36:28;9.70;;;2.80;;
63193;SDS011;49289;51.670;5.624;2023-07-13T03:38:15;4.60;;;2.30;;
63193;SDS011;49289;51.670;5.624;2023-07-13T03:40:02;5.50;;;2.20;;
63193;SDS011;49289;51.670;5.624;2023-07-13T03:41:50;5.90;;;2.30;;
63193;SDS011;49289;51.670;5.624;2023-07-13T03:43:37;5.20;;;2.50;;
63193;SDS011;49289;51.670;5.624;2023-07-13T03:45:26;8.20;;;2.90;;
63193;SDS011;49289;51.670;5.624;2023-07-13T03:47:14;4.20;;;2.10;;
63193;SDS011;49289;51.670;5.624;2023-07-13T03:49:01;7.90;;;2.50;;
63193;SDS011;49289;51.670;5.624;2023-07-13T03:50:49;8.40;;;2.70;;
63193;SDS011;49289;51.670;5.624;2023-07-13T03:52:36;7.10;;;2.50;;
63193;SDS011;49289;51.670;5.624;2023-07-13T03:54:23;4.40;;;2.50;;
63193;SDS011;49289;51.670;5.624;2023-07-13T03:56:12;8.50;;;2.50;;
63193;SDS011;49289;51.670;5.624;2023-07-13T03:58:00;8.20;;;2.80;;
63193;SDS011;49289;51.670;5.624;2023-07-13T03:59:53;5.80;;;2.30;;
63193;SDS011;49289;51.670;5.624;2023-07-13T04:01:42;6.60;;;2.40;;
63193;SDS011;49289;51.670;5.624;2023-07-13T04:03:30;6.00;;;2.70;;
63193;SDS011;49289;51.670;5.624;2023-07-13T04:05:17;6.50;;;2.40;;
63193;SDS011;49289;51.670;5.624;2023-07-13T04:07:04;11.40;;;2.90;;
63193;SDS011;49289;51.670;5.624;2023-07-13T04:08:53;9.00;;;2.40;;
63193;SDS011;49289;51.670;5.624;2023-07-13T04:10:41;9.30;;;2.90;;
63193;SDS011;49289;51.670;5.624;2023-07-13T04:12:29;6.30;;;2.90;;
63193;SDS011;49289;51.670;5.624;2023-07-13T04:14:18;8.20;;;2.70;;
63193;SDS011;49289;51.670;5.624;2023-07-13T04:16:06;5.90;;;2.60;;
63193;SDS011;49289;51.670;5.624;2023-07-13T04:17:53;5.90;;;2.40;;
63193;SDS011;49289;51.670;5.624;2023-07-13T04:19:42;5.60;;;2.70;;
63193;SDS011;49289;51.670;5.624;2023-07-13T04:21:30;9.30;;;2.70;;
63193;SDS011;49289;51.670;5.624;2023-07-13T04:23:17;11.00;;;3.10;;
63193;SDS011;49289;51.670;5.624;2023-07-13T04:25:04;4.20;;;2.40;;
63193;SDS011;49289;51.670;5.624;2023-07-13T04:26:52;7.70;;;2.90;;
63193;SDS011;49289;51.670;5.624;2023-07-13T04:28:41;7.70;;;2.60;;
63193;SDS011;49289;51.670;5.624;2023-07-13T04:30:29;9.10;;;3.20;;
63193;SDS011;49289;51.670;5.624;2023-07-13T04:32:16;6.50;;;2.70;;
63193;SDS011;49289;51.670;5.624;2023-07-13T04:34:04;7.70;;;2.70;;
63193;SDS011;49289;51.670;5.624;2023-07-13T04:35:53;8.30;;;3.00;;
63193;SDS011;49289;51.670;5.624;2023-07-13T04:37:41;9.60;;;2.90;;
63193;SDS011;49289;51.670;5.624;2023-07-13T04:39:28;6.50;;;2.70;;
63193;SDS011;49289;51.670;5.624;2023-07-13T04:41:15;7.20;;;2.90;;
63193;SDS011;49289;51.670;5.624;2023-07-13T04:43:02;9.50;;;3.40;;
63193;SDS011;49289;51.670;5.624;2023-07-13T04:44:53;7.80;;;3.10;;
63193;SDS011;49289;51.670;5.624;2023-07-13T04:46:40;9.90;;;3.70;;
63193;SDS011;49289;51.670;5.624;2023-07-13T04:48:27;8.30;;;3.40;;
63193;SDS011;49289;51.670;5.624;2023-07-13T04:50:15;10.30;;;3.40;;
63193;SDS011;49289;51.670;5.624;2023-07-13T04:52:02;8.70;;;3.60;;
63193;SDS011;49289;51.670;5.624;2023-07-13T04:53:50;7.50;;;3.20;;
63193;SDS011;49289;51.670;5.624;2023-07-13T04:55:37;10.10;;;3.80;;
63193;SDS011;49289;51.670;5.624;2023-07-13T04:57:24;8.00;;;3.50;;
63193;SDS011;49289;51.670;5.624;2023-07-13T04:59:13;11.00;;;3.40;;
63193;SDS011;49289;51.670;5.624;2023-07-13T05:01:05;10.90;;;3.40;;
63193;SDS011;49289;51.670;5.624;2023-07-13T05:02:53;10.30;;;3.80;;
63193;SDS011;49289;51.670;5.624;2023-07-13T05:04:41;8.50;;;3.90;;
63193;SDS011;49289;51.670;5.624;2023-07-13T05:06:28;10.00;;;4.10;;
63193;SDS011;49289;51.670;5.624;2023-07-13T05:08:15;13.20;;;4.60;;
63193;SDS011;49289;51.670;5.624;2023-07-13T05:10:02;12.70;;;4.60;;
63193;SDS011;49289;51.670;5.624;2023-07-13T05:11:50;11.80;;;4.50;;
63193;SDS011;49289;51.670;5.624;2023-07-13T05:13:39;13.40;;;5.20;;
63193;SDS011;49289;51.670;5.624;2023-07-13T05:15:26;13.60;;;5.20;;
63193;SDS011;49289;51.670;5.624;2023-07-13T05:17:15;13.60;;;5.60;;
63193;SDS011;49289;51.670;5.624;2023-07-13T05:19:02;14.70;;;5.80;;
63193;SDS011;49289;51.670;5.624;2023-07-13T05:20:49;18.50;;;6.50;;
63193;SDS011;49289;51.670;5.624;2023-07-13T05:22:44;14.70;;;6.50;;
63193;SDS011;49289;51.670;5.624;2023-07-13T05:24:32;16.50;;;6.80;;
63193;SDS011;49289;51.670;5.624;2023-07-13T05:26:20;15.60;;;6.40;;
63193;SDS011;49289;51.670;5.624;2023-07-13T05:28:07;15.10;;;7.10;;
63193;SDS011;49289;51.670;5.624;2023-07-13T05:29:54;20.30;;;7.30;;
63193;SDS011;49289;51.670;5.624;2023-07-13T05:31:43;19.00;;;7.50;;
63193;SDS011;49289;51.670;5.624;2023-07-13T05:33:31;18.20;;;7.00;;
63193;SDS011;49289;51.670;5.624;2023-07-13T05:35:18;18.40;;;8.20;;
63193;SDS011;49289;51.670;5.624;2023-07-13T05:37:05;15.60;;;8.20;;
63193;SDS011;49289;51.670;5.624;2023-07-13T05:38:52;16.30;;;8.40;;
63193;SDS011;49289;51.670;5.624;2023-07-13T05:40:41;20.20;;;8.50;;
63193;SDS011;49289;51.670;5.624;2023-07-13T05:42:29;23.50;;;9.20;;
63193;SDS011;49289;51.670;5.624;2023-07-13T05:44:16;18.80;;;8.40;;
63193;SDS011;49289;51.670;5.624;2023-07-13T05:46:03;16.70;;;8.30;;
63193;SDS011;49289;51.670;5.624;2023-07-13T05:47:50;16.80;;;9.00;;
63193;SDS011;49289;51.670;5.624;2023-07-13T05:49:39;21.50;;;9.00;;
63193;SDS011;49289;51.670;5.624;2023-07-13T05:51:27;19.90;;;8.90;;
63193;SDS011;49289;51.670;5.624;2023-07-13T05:53:14;22.60;;;9.70;;
63193;SDS011;49289;51.670;5.624;2023-07-13T05:55:01;19.20;;;9.00;;
63193;SDS011;49289;51.670;5.624;2023-07-13T05:56:49;22.20;;;10.10;;
63193;SDS011;49289;51.670;5.624;2023-07-13T05:58:36;19.20;;;9.50;;
63193;SDS011;49289;51.670;5.624;2023-07-13T06:00:24;25.00;;;10.40;;
63193;SDS011;49289;51.670;5.624;2023-07-13T06:02:13;23.00;;;10.70;;
63193;SDS011;49289;51.670;5.624;2023-07-13T06:04:00;20.50;;;9.90;;
63193;SDS011;49289;51.670;5.624;2023-07-13T06:05:48;22.00;;;9.90;;
63193;SDS011;49289;51.670;5.624;2023-07-13T06:07:37;20.20;;;9.40;;
63193;SDS011;49289;51.670;5.624;2023-07-13T06:09:25;23.80;;;9.80;;
63193;SDS011;49289;51.670;5.624;2023-07-13T06:11:13;22.40;;;9.90;;
63193;SDS011;49289;51.670;5.624;2023-07-13T06:12:59;22.20;;;9.90;;
63193;SDS011;49289;51.670;5.624;2023-07-13T06:14:47;21.90;;;9.80;;
63193;SDS011;49289;51.670;5.624;2023-07-13T06:16:36;24.00;;;10.00;;
63193;SDS011;49289;51.670;5.624;2023-07-13T06:18:23;22.90;;;9.70;;
63193;SDS011;49289;51.670;5.624;2023-07-13T06:20:11;22.00;;;10.00;;
63193;SDS011;49289;51.670;5.624;2023-07-13T06:21:59;23.10;;;10.20;;
63193;SDS011;49289;51.670;5.624;2023-07-13T06:23:48;22.40;;;10.00;;
63193;SDS011;49289;51.670;5.624;2023-07-13T06:25:35;26.10;;;10.20;;
63193;SDS011;49289;51.670;5.624;2023-07-13T06:27:22;22.40;;;10.10;;
63193;SDS011;49289;51.670;5.624;2023-07-13T06:29:09;21.80;;;10.40;;
63193;SDS011;49289;51.670;5.624;2023-07-13T06:30:58;20.30;;;9.90;;
63193;SDS011;49289;51.670;5.624;2023-07-13T06:32:46;21.40;;;10.30;;
63193;SDS011;49289;51.670;5.624;2023-07-13T06:34:34;21.40;;;9.90;;
63193;SDS011;49289;51.670;5.624;2023-07-13T06:36:21;21.70;;;10.00;;
63193;SDS011;49289;51.670;5.624;2023-07-13T06:38:08;25.00;;;10.60;;
63193;SDS011;49289;51.670;5.624;2023-07-13T06:39:56;21.10;;;10.80;;
63193;SDS011;49289;51.670;5.624;2023-07-13T06:41:45;17.60;;;9.60;;
63193;SDS011;49289;51.670;5.624;2023-07-13T06:43:33;27.20;;;10.90;;
63193;SDS011;49289;51.670;5.624;2023-07-13T06:45:20;21.60;;;11.10;;
63193;SDS011;49289;51.670;5.624;2023-07-13T06:47:09;21.20;;;9.80;;
63193;SDS011;49289;51.670;5.624;2023-07-13T06:48:56;19.10;;;10.00;;
63193;SDS011;49289;51.670;5.624;2023-07-13T06:50:43;21.50;;;10.80;;
63193;SDS011;49289;51.670;5.624;2023-07-13T06:52:30;18.30;;;10.30;;
63193;SDS011;49289;51.670;5.624;2023-07-13T06:55:16;18.70;;;9.80;;
63193;SDS011;49289;51.670;5.624;2023-07-13T06:57:04;15.40;;;9.60;;
63193;SDS011;49289;51.670;5.624;2023-07-13T06:58:51;20.60;;;9.20;;
63193;SDS011;49289;51.670;5.624;2023-07-13T07:00:38;20.50;;;9.90;;
63193;SDS011;49289;51.670;5.624;2023-07-13T07:02:25;20.40;;;10.00;;
63193;SDS011;49289;51.670;5.624;2023-07-13T07:04:12;20.10;;;10.30;;
63193;SDS011;49289;51.670;5.624;2023-07-13T07:06:06;19.80;;;8.90;;
63193;SDS011;49289;51.670;5.624;2023-07-13T07:07:56;18.30;;;9.90;;
63193;SDS011;49289;51.670;5.624;2023-07-13T07:09:44;19.30;;;9.20;;
63193;SDS011;49289;51.670;5.624;2023-07-13T07:11:31;18.70;;;9.90;;
63193;SDS011;49289;51.670;5.624;2023-07-13T07:13:18;19.90;;;10.10;;
63193;SDS011;49289;51.670;5.624;2023-07-13T07:15:05;22.50;;;10.40;;
63193;SDS011;49289;51.670;5.624;2023-07-13T07:16:54;23.00;;;9.60;;
63193;SDS011;49289;51.670;5.624;2023-07-13T07:18:42;19.60;;;9.60;;
63193;SDS011;49289;51.670;5.624;2023-07-13T07:20:29;18.90;;;9.90;;
63193;SDS011;49289;51.670;5.624;2023-07-13T07:22:16;19.30;;;10.10;;
63193;SDS011;49289;51.670;5.624;2023-07-13T07:24:04;18.40;;;10.00;;
63193;SDS011;49289;51.670;5.624;2023-07-13T07:25:53;18.70;;;10.10;;
63193;SDS011;49289;51.670;5.624;2023-07-13T07:27:40;23.60;;;10.00;;
63193;SDS011;49289;51.670;5.624;2023-07-13T07:29:27;20.30;;;9.90;;
63193;SDS011;49289;51.670;5.624;2023-07-13T07:31:16;17.20;;;9.50;;
63193;SDS011;49289;51.670;5.624;2023-07-13T07:33:04;18.50;;;9.30;;
63193;SDS011;49289;51.670;5.624;2023-07-13T07:34:51;19.60;;;9.60;;
63193;SDS011;49289;51.670;5.624;2023-07-13T07:36:38;20.40;;;9.30;;
63193;SDS011;49289;51.670;5.624;2023-07-13T07:38:27;16.60;;;9.30;;
63193;SDS011;49289;51.670;5.624;2023-07-13T07:40:15;15.10;;;8.70;;
63193;SDS011;49289;51.670;5.624;2023-07-13T07:42:02;18.60;;;8.80;;
63193;SDS011;49289;51.670;5.624;2023-07-13T07:43:51;16.70;;;8.50;;
63193;SDS011;49289;51.670;5.624;2023-07-13T07:45:40;16.40;;;9.00;;
63193;SDS011;49289;51.670;5.624;2023-07-13T07:47:29;17.70;;;9.90;;
63193;SDS011;49289;51.670;5.624;2023-07-13T07:49:17;17.60;;;9.50;;
63193;SDS011;49289;51.670;5.624;2023-07-13T07:51:04;18.10;;;9.50;;
63193;SDS011;49289;51.670;5.624;2023-07-13T07:52:51;17.00;;;9.00;;
63193;SDS011;49289;51.670;5.624;2023-07-13T07:54:39;18.10;;;9.20;;
63193;SDS011;49289;51.670;5.624;2023-07-13T07:56:28;18.20;;;9.40;;
63193;SDS011;49289;51.670;5.624;2023-07-13T07:58:15;15.20;;;9.00;;
63193;SDS011;49289;51.670;5.624;2023-07-13T08:00:02;16.30;;;8.80;;
63193;SDS011;49289;51.670;5.624;2023-07-13T08:01:50;16.40;;;8.60;;
63193;SDS011;49289;51.670;5.624;2023-07-13T08:03:38;17.90;;;8.60;;
63193;SDS011;49289;51.670;5.624;2023-07-13T08:05:27;11.50;;;8.50;;
63193;SDS011;49289;51.670;5.624;2023-07-13T08:07:14;16.50;;;8.80;;
63193;SDS011;49289;51.670;5.624;2023-07-13T08:09:01;17.70;;;8.80;;
63193;SDS011;49289;51.670;5.624;2023-07-13T08:10:48;16.50;;;8.70;;
63193;SDS011;49289;51.670;5.624;2023-07-13T08:14:26;13.90;;;8.10;;
63193;SDS011;49289;51.670;5.624;2023-07-13T08:16:13;14.30;;;7.70;;
63193;SDS011;49289;51.670;5.624;2023-07-13T08:18:00;15.40;;;8.00;;
63193;SDS011;49289;51.670;5.624;2023-07-13T08:19:48;15.70;;;8.30;;
63193;SDS011;49289;51.670;5.624;2023-07-13T08:21:37;17.20;;;7.80;;
63193;SDS011;49289;51.670;5.624;2023-07-13T08:23:24;12.60;;;6.80;;
63193;SDS011;49289;51.670;5.624;2023-07-13T08:25:12;14.80;;;7.20;;
63193;SDS011;49289;51.670;5.624;2023-07-13T08:26:59;15.80;;;7.90;;
63193;SDS011;49289;51.670;5.624;2023-07-13T08:28:46;13.20;;;6.40;;
63193;SDS011;49289;51.670;5.624;2023-07-13T08:30:35;12.50;;;6.20;;
63193;SDS011;49289;51.670;5.624;2023-07-13T08:32:23;13.60;;;6.60;;
63193;SDS011;49289;51.670;5.624;2023-07-13T08:34:10;10.90;;;6.60;;
63193;SDS011;49289;51.670;5.624;2023-07-13T08:35:57;13.50;;;6.80;;
63193;SDS011;49289;51.670;5.624;2023-07-13T08:37:44;13.60;;;6.80;;
63193;SDS011;49289;51.670;5.624;2023-07-13T08:39:33;11.20;;;6.90;;
63193;SDS011;49289;51.670;5.624;2023-07-13T08:41:21;14.80;;;6.40;;
63193;SDS011;49289;51.670;5.624;2023-07-13T08:43:09;16.40;;;6.90;;
63193;SDS011;49289;51.670;5.624;2023-07-13T08:45:00;11.00;;;6.30;;
63193;SDS011;49289;51.670;5.624;2023-07-13T08:46:47;13.50;;;6.30;;
63193;SDS011;49289;51.670;5.624;2023-07-13T08:48:36;12.00;;;6.80;;
63193;SDS011;49289;51.670;5.624;2023-07-13T08:50:25;12.50;;;6.10;;
63193;SDS011;49289;51.670;5.624;2023-07-13T08:52:14;9.20;;;5.80;;
63193;SDS011;49289;51.670;5.624;2023-07-13T08:54:02;9.90;;;5.60;;
63193;SDS011;49289;51.670;5.624;2023-07-13T08:55:48;9.20;;;5.70;;
63193;SDS011;49289;51.670;5.624;2023-07-13T08:57:35;7.80;;;5.40;;
63193;SDS011;49289;51.670;5.624;2023-07-13T08:59:22;8.70;;;5.40;;
63193;SDS011;49289;51.670;5.624;2023-07-13T09:01:14;9.00;;;5.50;;
63193;SDS011;49289;51.670;5.624;2023-07-13T09:03:01;11.60;;;5.40;;
63193;SDS011;49289;51.670;5.624;2023-07-13T09:04:49;7.00;;;4.80;;
63193;SDS011;49289;51.670;5.624;2023-07-13T09:06:39;10.60;;;5.10;;
63193;SDS011;49289;51.670;5.624;2023-07-13T09:08:41;8.10;;;4.90;;
63193;SDS011;49289;51.670;5.624;2023-07-13T09:10:30;11.60;;;5.30;;
63193;SDS011;49289;51.670;5.624;2023-07-13T09:12:19;9.30;;;5.30;;
63193;SDS011;49289;51.670;5.624;2023-07-13T09:14:07;8.80;;;5.20;;
63193;SDS011;49289;51.670;5.624;2023-07-13T09:15:59;8.00;;;5.00;;
63193;SDS011;49289;51.670;5.624;2023-07-13T09:17:48;9.80;;;4.80;;
63193;SDS011;49289;51.670;5.624;2023-07-13T09:19:37;8.10;;;5.00;;
63193;SDS011;49289;51.670;5.624;2023-07-13T09:21:28;10.80;;;5.30;;
63193;SDS011;49289;51.670;5.624;2023-07-13T09:23:16;7.50;;;5.20;;
63193;SDS011;49289;51.670;5.624;2023-07-13T09:25:04;7.20;;;5.30;;
63193;SDS011;49289;51.670;5.624;2023-07-13T09:26:51;8.40;;;5.30;;
63193;SDS011;49289;51.670;5.624;2023-07-13T09:28:41;10.10;;;5.80;;
63193;SDS011;49289;51.670;5.624;2023-07-13T09:30:30;9.40;;;5.50;;
63193;SDS011;49289;51.670;5.624;2023-07-13T09:32:18;9.10;;;5.50;;
63193;SDS011;49289;51.670;5.624;2023-07-13T09:34:07;8.80;;;4.70;;
63193;SDS011;49289;51.670;5.624;2023-07-13T09:35:55;9.10;;;5.00;;
63193;SDS011;49289;51.670;5.624;2023-07-13T09:37:43;9.50;;;5.20;;
63193;SDS011;49289;51.670;5.624;2023-07-13T09:39:31;9.70;;;4.90;;
63193;SDS011;49289;51.670;5.624;2023-07-13T09:41:21;7.50;;;5.10;;
63193;SDS011;49289;51.670;5.624;2023-07-13T09:43:07;7.70;;;5.30;;
63193;SDS011;49289;51.670;5.624;2023-07-13T09:44:58;8.50;;;5.10;;
63193;SDS011;49289;51.670;5.624;2023-07-13T09:46:46;8.00;;;5.50;;
63193;SDS011;49289;51.670;5.624;2023-07-13T09:48:36;9.90;;;6.00;;
63193;SDS011;49289;51.670;5.624;2023-07-13T09:50:23;7.60;;;5.70;;
63193;SDS011;49289;51.670;5.624;2023-07-13T09:52:13;8.30;;;5.20;;
63193;SDS011;49289;51.670;5.624;2023-07-13T09:54:01;8.50;;;5.70;;
63193;SDS011;49289;51.670;5.624;2023-07-13T09:55:49;11.00;;;6.00;;
63193;SDS011;49289;51.670;5.624;2023-07-13T09:57:36;8.30;;;5.80;;
63193;SDS011;49289;51.670;5.624;2023-07-13T09:59:28;9.40;;;5.80;;
63193;SDS011;49289;51.670;5.624;2023-07-13T10:01:14;8.70;;;5.80;;
63193;SDS011;49289;51.670;5.624;2023-07-13T10:03:05;8.60;;;5.60;;
63193;SDS011;49289;51.670;5.624;2023-07-13T10:04:54;7.90;;;5.30;;
63193;SDS011;49289;51.670;5.624;2023-07-13T10:06:42;9.40;;;6.00;;
63193;SDS011;49289;51.670;5.624;2023-07-13T10:08:30;9.00;;;5.40;;
63193;SDS011;49289;51.670;5.624;2023-07-13T10:10:20;11.60;;;6.20;;
63193;SDS011;49289;51.670;5.624;2023-07-13T10:12:12;6.70;;;5.40;;
63193;SDS011;49289;51.670;5.624;2023-07-13T10:14:00;8.70;;;4.60;;
63193;SDS011;49289;51.670;5.624;2023-07-13T10:15:49;5.80;;;4.10;;
63193;SDS011;49289;51.670;5.624;2023-07-13T10:17:37;7.00;;;4.30;;
63193;SDS011;49289;51.670;5.624;2023-07-13T10:19:25;7.40;;;4.80;;
63193;SDS011;49289;51.670;5.624;2023-07-13T10:21:18;9.30;;;5.20;;
63193;SDS011;49289;51.670;5.624;2023-07-13T10:23:05;10.80;;;4.80;;
63193;SDS011;49289;51.670;5.624;2023-07-13T10:24:54;8.10;;;4.60;;
63193;SDS011;49289;51.670;5.624;2023-07-13T10:26:43;5.30;;;4.50;;
63193;SDS011;49289;51.670;5.624;2023-07-13T10:28:31;5.60;;;3.90;;
63193;SDS011;49289;51.670;5.624;2023-07-13T10:30:19;6.10;;;4.10;;
63193;SDS011;49289;51.670;5.624;2023-07-13T10:32:06;7.70;;;4.70;;
63193;SDS011;49289;51.670;5.624;2023-07-13T10:33:53;8.30;;;4.20;;
63193;SDS011;49289;51.670;5.624;2023-07-13T10:35:43;7.60;;;4.00;;
63193;SDS011;49289;51.670;5.624;2023-07-13T10:37:41;6.00;;;4.20;;
63193;SDS011;49289;51.670;5.624;2023-07-13T10:39:23;6.60;;;3.90;;
63193;SDS011;49289;51.670;5.624;2023-07-13T10:41:10;6.70;;;4.00;;
63193;SDS011;49289;51.670;5.624;2023-07-13T10:42:57;7.20;;;4.30;;
63193;SDS011;49289;51.670;5.624;2023-07-13T10:44:45;5.00;;;4.30;;
63193;SDS011;49289;51.670;5.624;2023-07-13T10:46:33;7.80;;;4.80;;
63193;SDS011;49289;51.670;5.624;2023-07-13T10:48:20;5.90;;;4.70;;
63193;SDS011;49289;51.670;5.624;2023-07-13T10:50:15;9.40;;;4.60;;
63193;SDS011;49289;51.670;5.624;2023-07-13T10:52:03;6.70;;;4.80;;
63193;SDS011;49289;51.670;5.624;2023-07-13T10:54:10;7.60;;;4.60;;